Time,TemperatureF,DewpointF,PressureIn,WindDirection,WindDirectionDegrees,WindSpeedMPH,WindSpeedGustMPH,Humidity,HourlyPrecipIn,Conditions,Clouds,dailyrainin,SolarRadiationWatts/m^2,SoftwareType,DateUTC
2013-06-07 00:03:00,68.0,68.0,-100.00,ESE,116,0.0,0.0,100,0.00,,,0.26,0.000000,,2013-06-07 05:03:00,
2013-06-07 00:32:00,67.0,67.0,-100.00,South,172,0.0,0.0,100,0.00,,,0.26,0.000000,,2013-06-07 05:32:00,
2013-06-07 00:42:00,67.0,67.0,-100.00,South,172,0.0,0.0,100,0.00,,,0.26,0.000000,,2013-06-07 05:42:00,
2013-06-07 00:52:00,67.0,67.0,-100.00,South,172,0.0,0.0,100,0.00,,,0.26,0.000000,,2013-06-07 05:52:00,
2013-06-07 01:02:00,67.0,67.0,-100.00,South,172,0.0,0.0,100,0.00,,,0.26,0.000000,,2013-06-07 06:02:00,
2013-06-07 01:32:00,66.0,66.0,-100.00,ENE,64,0.0,3.0,100,0.00,,,-99.99,0.000000,,2013-06-07 06:32:00,
2013-06-07 01:43:00,66.0,66.0,-100.00,ENE,64,0.0,3.0,100,0.00,,,-99.99,0.000000,,2013-06-07 06:43:00,
2013-06-07 01:52:00,66.0,66.0,-100.00,ENE,64,0.0,3.0,100,0.00,,,-99.99,0.000000,,2013-06-07 06:52:00,
2013-06-07 02:02:00,66.0,66.0,-100.00,ENE,64,0.0,3.0,100,0.00,,,-99.99,0.000000,,2013-06-07 07:02:00,
2013-06-07 02:32:00,65.0,65.0,-100.00,NW,309,1.0,3.0,100,0.00,,,0.26,0.000000,,2013-06-07 07:32:00,
2013-06-07 02:42:00,65.0,65.0,-100.00,NW,309,1.0,3.0,100,0.00,,,0.26,0.000000,,2013-06-07 07:42:00,
2013-06-07 02:52:00,65.0,65.0,-100.00,NW,309,1.0,3.0,100,0.00,,,0.26,0.000000,,2013-06-07 07:52:00,
2013-06-07 03:02:00,65.0,65.0,-100.00,NW,309,1.0,3.0,100,0.00,,,0.26,0.000000,,2013-06-07 08:02:00,
2013-06-07 03:32:00,65.0,65.0,-100.00,NW,308,1.0,3.0,100,0.00,,,0.26,0.000000,,2013-06-07 08:32:00,
2013-06-07 03:43:00,65.0,65.0,-100.00,NW,308,1.0,3.0,100,0.00,,,0.26,0.000000,,2013-06-07 08:43:00,
2013-06-07 03:52:00,65.0,65.0,-100.00,NW,308,1.0,3.0,100,0.00,,,0.26,0.000000,,2013-06-07 08:52:00,
2013-06-07 04:02:00,65.0,65.0,-100.00,NW,308,1.0,3.0,100,0.00,,,0.26,0.000000,,2013-06-07 09:02:00,
2013-06-07 04:32:00,65.0,65.0,-100.00,NNE,18,2.0,4.0,100,0.00,,,0.25,0.000000,,2013-06-07 09:32:00,
2013-06-07 04:43:00,65.0,65.0,-100.00,NNE,18,2.0,4.0,100,0.00,,,0.25,0.000000,,2013-06-07 09:43:00,
2013-06-07 04:53:00,65.0,65.0,-100.00,NNE,18,2.0,4.0,100,0.00,,,0.25,0.000000,,2013-06-07 09:53:00,
2013-06-07 05:02:00,65.0,65.0,-100.00,NNE,18,2.0,4.0,100,0.00,,,0.25,0.000000,,2013-06-07 10:02:00,
2013-06-07 05:33:00,65.0,65.0,-100.00,North,5,3.0,5.0,100,0.00,,,0.25,0.000000,,2013-06-07 10:33:00,
2013-06-07 05:43:00,65.0,65.0,-100.00,North,5,3.0,5.0,100,0.00,,,0.25,0.000000,,2013-06-07 10:43:00,
2013-06-07 05:53:00,65.0,65.0,-100.00,North,5,3.0,5.0,100,0.00,,,0.25,0.000000,,2013-06-07 10:53:00,
2013-06-07 06:02:00,65.0,65.0,-100.00,North,5,3.0,5.0,100,0.00,,,0.25,0.000000,,2013-06-07 11:02:00,
2013-06-07 06:32:00,65.0,65.0,-100.00,NNE,14,3.0,6.0,100,0.00,,,0.01,7.000000,,2013-06-07 11:32:00,
2013-06-07 06:42:00,65.0,65.0,-100.00,NNE,14,3.0,6.0,100,0.00,,,0.01,7.000000,,2013-06-07 11:42:00,
2013-06-07 06:52:00,65.0,65.0,-100.00,NNE,14,3.0,6.0,100,0.00,,,0.01,7.000000,,2013-06-07 11:52:00,
2013-06-07 07:02:00,65.0,65.0,-100.00,NNE,14,3.0,6.0,100,0.00,,,0.01,7.000000,,2013-06-07 12:02:00,
2013-06-07 07:33:00,66.0,66.0,-100.00,NNE,13,3.0,6.0,100,0.00,,,0.01,68.000000,,2013-06-07 12:33:00,
2013-06-07 07:42:00,66.0,66.0,-100.00,NNE,13,3.0,6.0,100,0.00,,,0.01,68.000000,,2013-06-07 12:42:00,
2013-06-07 07:52:00,66.0,66.0,-100.00,NNE,13,3.0,6.0,100,0.00,,,0.01,68.000000,,2013-06-07 12:52:00,
2013-06-07 08:02:00,66.0,66.0,-100.00,NNE,13,3.0,6.0,100,0.00,,,0.01,68.000000,,2013-06-07 13:02:00,
2013-06-07 08:32:00,68.0,68.0,-100.00,NNE,19,2.0,6.0,100,0.00,,,0.01,148.000000,,2013-06-07 13:32:00,
2013-06-07 08:43:00,68.0,68.0,-100.00,NNE,19,2.0,6.0,100,0.00,,,0.01,148.000000,,2013-06-07 13:43:00,
2013-06-07 08:52:00,68.0,68.0,-100.00,NNE,19,2.0,6.0,100,0.00,,,0.01,148.000000,,2013-06-07 13:52:00,
2013-06-07 09:02:00,68.0,68.0,-100.00,NNE,19,2.0,6.0,100,0.00,,,0.01,148.000000,,2013-06-07 14:02:00,
2013-06-07 09:33:00,72.0,72.0,-100.00,NNE,22,4.0,8.0,100,0.00,,,0.00,330.000000,,2013-06-07 14:33:00,
2013-06-07 09:42:00,72.0,72.0,-100.00,NNE,22,4.0,8.0,100,0.00,,,0.00,330.000000,,2013-06-07 14:42:00,
2013-06-07 09:52:00,72.0,72.0,-100.00,NNE,22,4.0,8.0,100,0.00,,,0.00,330.000000,,2013-06-07 14:52:00,
2013-06-07 10:02:00,72.0,72.0,-100.00,NNE,22,4.0,8.0,100,0.00,,,0.00,330.000000,,2013-06-07 15:02:00,
2013-06-07 10:33:00,75.0,69.0,-100.00,NNE,32,3.0,6.0,81,0.00,,,-99.99,458.000000,,2013-06-07 15:33:00,
2013-06-07 10:43:00,75.0,69.0,-100.00,NNE,32,3.0,6.0,81,0.00,,,-99.99,458.000000,,2013-06-07 15:43:00,
2013-06-07 10:53:00,75.0,69.0,-100.00,NNE,32,3.0,6.0,81,0.00,,,-99.99,458.000000,,2013-06-07 15:53:00,
2013-06-07 11:03:00,75.0,69.0,-100.00,NNE,32,3.0,6.0,81,0.00,,,-99.99,458.000000,,2013-06-07 16:03:00,
2013-06-07 11:33:00,75.0,66.0,-100.00,North,349,5.0,10.0,73,0.00,,,0.00,435.000000,,2013-06-07 16:33:00,
2013-06-07 11:43:00,75.0,66.0,-100.00,North,349,5.0,10.0,73,0.00,,,0.00,435.000000,,2013-06-07 16:43:00,
2013-06-07 11:53:00,75.0,66.0,-100.00,North,349,5.0,10.0,73,0.00,,,0.00,435.000000,,2013-06-07 16:53:00,
2013-06-07 12:02:00,75.0,66.0,-100.00,North,349,5.0,10.0,73,0.00,,,0.00,435.000000,,2013-06-07 17:02:00,
2013-06-07 12:32:00,78.0,66.0,-100.00,NNW,340,4.0,9.0,67,0.00,,,0.00,613.000000,,2013-06-07 17:32:00,
2013-06-07 12:43:00,78.0,66.0,-100.00,NNW,340,4.0,9.0,67,0.00,,,0.00,613.000000,,2013-06-07 17:43:00,
2013-06-07 12:52:00,78.0,66.0,-100.00,NNW,340,4.0,9.0,67,0.00,,,0.00,613.000000,,2013-06-07 17:52:00,
2013-06-07 13:05:00,78.0,66.0,-100.00,NNW,340,4.0,9.0,67,0.00,,,0.00,613.000000,,2013-06-07 18:05:00,
2013-06-07 13:06:00,80.0,66.0,-100.00,NNW,336,5.0,10.0,62,0.00,,,0.00,697.000000,,2013-06-07 18:06:00,
2013-06-07 13:38:00,80.0,66.0,-100.00,NNW,336,5.0,10.0,62,0.00,,,0.00,697.000000,,2013-06-07 18:38:00,
2013-06-07 13:45:00,80.0,66.0,-100.00,NNW,336,5.0,10.0,62,0.00,,,0.00,697.000000,,2013-06-07 18:45:00,
2013-06-07 13:59:00,80.0,66.0,-100.00,NNW,336,5.0,10.0,62,0.00,,,0.00,697.000000,,2013-06-07 18:59:00,
2013-06-07 14:06:00,80.0,62.0,-100.00,NW,326,4.0,11.0,54,0.00,,,0.00,742.000000,,2013-06-07 19:06:00,
2013-06-07 14:40:00,80.0,62.0,-100.00,NW,326,4.0,11.0,54,0.00,,,0.00,742.000000,,2013-06-07 19:40:00,
2013-06-07 14:50:00,80.0,62.0,-100.00,NW,326,4.0,11.0,54,0.00,,,0.00,742.000000,,2013-06-07 19:50:00,
2013-06-07 14:58:00,80.0,62.0,-100.00,NW,326,4.0,11.0,54,0.00,,,0.00,742.000000,,2013-06-07 19:58:00,
2013-06-07 15:51:00,79.0,60.0,-100.00,NNW,344,5.0,9.0,52,0.00,,,0.00,447.000000,,2013-06-07 20:51:00,
2013-06-07 15:58:00,79.0,60.0,-100.00,NNW,344,5.0,9.0,52,0.00,,,0.00,447.000000,,2013-06-07 20:58:00,
2013-06-07 16:05:00,79.0,60.0,-100.00,NNW,344,5.0,9.0,52,0.00,,,0.00,447.000000,,2013-06-07 21:05:00,
2013-06-07 16:06:00,78.0,62.0,-100.00,NNW,348,3.0,7.0,58,0.00,,,0.00,330.000000,,2013-06-07 21:06:00,
2013-06-07 16:47:00,78.0,62.0,-100.00,NNW,348,3.0,7.0,58,0.00,,,0.00,330.000000,,2013-06-07 21:47:00,
2013-06-07 17:39:00,74.0,65.0,-100.00,South,179,0.0,4.0,73,0.00,,,0.00,105.000000,,2013-06-07 22:39:00,
2013-06-07 17:49:00,74.0,65.0,-100.00,South,179,0.0,4.0,73,0.00,,,0.00,105.000000,,2013-06-07 22:49:00,
2013-06-07 17:59:00,74.0,65.0,-100.00,South,179,0.0,4.0,73,0.00,,,0.00,105.000000,,2013-06-07 22:59:00,
2013-06-07 18:06:00,67.0,67.0,-100.00,SW,231,3.0,12.0,100,0.03,,,0.03,21.000000,,2013-06-07 23:06:00,
2013-06-07 18:41:00,67.0,67.0,-100.00,SW,231,3.0,12.0,100,0.03,,,0.03,21.000000,,2013-06-07 23:41:00,
2013-06-07 18:54:00,67.0,67.0,-100.00,SW,231,3.0,12.0,100,0.03,,,0.03,21.000000,,2013-06-07 23:54:00,
2013-06-07 19:03:00,67.0,67.0,-100.00,SW,231,3.0,12.0,100,0.03,,,0.03,21.000000,,2013-06-08 00:03:00,
2013-06-07 19:32:00,66.0,66.0,-100.00,WNW,303,0.0,4.0,100,0.17,,,0.20,14.000000,,2013-06-08 00:32:00,
2013-06-07 19:48:00,66.0,66.0,-100.00,WNW,303,0.0,4.0,100,0.17,,,0.20,14.000000,,2013-06-08 00:48:00,
2013-06-07 20:06:00,66.0,66.0,-100.00,SSW,201,0.0,1.0,100,0.01,,,-99.99,4.000000,,2013-06-08 01:06:00,
2013-06-07 20:39:00,66.0,66.0,-100.00,SSW,201,0.0,1.0,100,0.01,,,-99.99,4.000000,,2013-06-08 01:39:00,
2013-06-07 20:48:00,66.0,66.0,-100.00,SSW,201,0.0,1.0,100,0.01,,,-99.99,4.000000,,2013-06-08 01:48:00,
2013-06-07 21:01:00,66.0,66.0,-100.00,SSW,201,0.0,1.0,100,0.01,,,-99.99,4.000000,,2013-06-08 02:01:00,
2013-06-07 21:06:00,66.0,66.0,-100.00,WSW,253,2.0,4.0,100,0.00,,,0.21,0.000000,,2013-06-08 02:06:00,
2013-06-07 21:37:00,66.0,66.0,-100.00,WSW,253,2.0,4.0,100,0.00,,,0.21,0.000000,,2013-06-08 02:37:00,
2013-06-07 21:49:00,66.0,66.0,-100.00,WSW,253,2.0,4.0,100,0.00,,,0.21,0.000000,,2013-06-08 02:49:00,
2013-06-07 21:59:00,66.0,66.0,-100.00,WSW,253,2.0,4.0,100,0.00,,,0.21,0.000000,,2013-06-08 02:59:00,
2013-06-07 22:40:00,66.0,66.0,-100.00,North,353,5.0,11.0,100,0.02,,,0.23,0.000000,,2013-06-08 03:40:00,
2013-06-07 23:00:00,66.0,66.0,-100.00,North,353,5.0,11.0,100,0.02,,,0.23,0.000000,,2013-06-08 04:00:00,
2013-06-07 23:03:00,66.0,66.0,-100.00,North,353,5.0,11.0,100,0.02,,,0.23,0.000000,,2013-06-08 04:03:00,
2013-06-07 23:33:00,65.0,65.0,-100.00,SE,144,1.0,4.0,100,0.01,,,0.24,0.000000,,2013-06-08 04:33:00,
2013-06-07 23:42:00,65.0,65.0,-100.00,SE,144,1.0,4.0,100,0.01,,,0.24,0.000000,,2013-06-08 04:42:00,
2013-06-07 23:53:00,65.0,65.0,-100.00,SE,144,1.0,4.0,100,0.01,,,0.24,0.000000,,2013-06-08 04:53:00,